sensor_id;sensor_type;location;lat;lon;timestamp;pressure;altitude;pressure_sealevel;temperature;humidity
10978;BME280;5542;48.272;10.794;2022-08-24T00:00:21;95956.19;;;16.97;63.03
10978;BME280;5542;48.272;10.794;2022-08-24T00:02:48;95955.91;;;16.93;63.11
10978;BME280;5542;48.272;10.794;2022-08-24T00:05:15;95953.22;;;16.88;63.45
10978;BME280;5542;48.272;10.794;2022-08-24T00:07:45;95955.38;;;16.86;63.59
10978;BME280;5542;48.272;10.794;2022-08-24T00:10:12;95943.66;;;16.82;63.41
10978;BME280;5542;48.272;10.794;2022-08-24T00:12:39;95948.97;;;16.82;63.58
10978;BME280;5542;48.272;10.794;2022-08-24T00:15:10;95948.44;;;16.85;63.43
10978;BME280;5542;48.272;10.794;2022-08-24T00:17:37;95946.56;;;16.80;63.78
10978;BME280;5542;48.272;10.794;2022-08-24T00:20:06;95952.59;;;16.71;64.32
10978;BME280;5542;48.272;10.794;2022-08-24T00:22:34;95946.53;;;16.75;64.27
10978;BME280;5542;48.272;10.794;2022-08-24T00:25:01;95948.63;;;16.63;64.75
10978;BME280;5542;48.272;10.794;2022-08-24T00:27:28;95954.16;;;16.61;64.72
10978;BME280;5542;48.272;10.794;2022-08-24T00:29:54;95951.81;;;16.70;64.78
10978;BME280;5542;48.272;10.794;2022-08-24T00:32:22;95945.16;;;16.62;64.85
10978;BME280;5542;48.272;10.794;2022-08-24T00:34:49;95950.44;;;16.52;65.16
10978;BME280;5542;48.272;10.794;2022-08-24T00:37:15;95944.56;;;16.45;65.50
10978;BME280;5542;48.272;10.794;2022-08-24T00:39:42;95950.16;;;16.44;65.59
10978;BME280;5542;48.272;10.794;2022-08-24T00:42:09;95944.56;;;16.45;65.60
10978;BME280;5542;48.272;10.794;2022-08-24T00:44:35;95938.97;;;16.42;65.81
10978;BME280;5542;48.272;10.794;2022-08-24T00:47:05;95935.78;;;16.39;65.74
10978;BME280;5542;48.272;10.794;2022-08-24T00:49:41;95944.03;;;16.43;65.57
10978;BME280;5542;48.272;10.794;2022-08-24T00:52:14;95946.69;;;16.43;65.63
10978;BME280;5542;48.272;10.794;2022-08-24T00:54:43;95944.56;;;16.45;65.95
10978;BME280;5542;48.272;10.794;2022-08-24T00:57:13;95943.78;;;16.45;65.79
10978;BME280;5542;48.272;10.794;2022-08-24T00:59:42;95945.34;;;16.46;65.63
10978;BME280;5542;48.272;10.794;2022-08-24T01:02:13;95950.66;;;16.46;65.51
10978;BME280;5542;48.272;10.794;2022-08-24T01:04:45;95949.59;;;16.42;65.61
10978;BME280;5542;48.272;10.794;2022-08-24T01:07:14;95940.00;;;16.35;65.64
10978;BME280;5542;48.272;10.794;2022-08-24T01:09:41;95947.19;;;16.35;65.79
10978;BME280;5542;48.272;10.794;2022-08-24T01:12:08;95949.28;;;16.33;65.66
10978;BME280;5542;48.272;10.794;2022-08-24T01:14:35;95957.25;;;16.33;65.94
10978;BME280;5542;48.272;10.794;2022-08-24T01:17:02;95947.44;;;16.33;65.57
10978;BME280;5542;48.272;10.794;2022-08-24T01:19:50;95944.75;;;16.28;65.15
10978;BME280;5542;48.272;10.794;2022-08-24T01:22:29;95952.19;;;16.26;65.37
10978;BME280;5542;48.272;10.794;2022-08-24T01:25:02;95951.66;;;16.24;65.36
10978;BME280;5542;48.272;10.794;2022-08-24T01:27:30;95951.66;;;16.24;65.28
10978;BME280;5542;48.272;10.794;2022-08-24T01:29:58;95950.31;;;16.22;65.33
10978;BME280;5542;48.272;10.794;2022-08-24T01:32:25;95948.72;;;16.21;65.27
10978;BME280;5542;48.272;10.794;2022-08-24T01:34:53;95948.72;;;16.21;65.33
10978;BME280;5542;48.272;10.794;2022-08-24T01:37:19;95947.63;;;16.17;65.05
10978;BME280;5542;48.272;10.794;2022-08-24T01:39:48;95944.69;;;16.13;65.01
10978;BME280;5542;48.272;10.794;2022-08-24T01:42:17;95938.03;;;16.10;64.66
10978;BME280;5542;48.272;10.794;2022-08-24T01:44:44;95942.28;;;16.06;64.64
10978;BME280;5542;48.272;10.794;2022-08-24T01:47:12;95941.69;;;15.99;64.69
10978;BME280;5542;48.272;10.794;2022-08-24T01:49:41;95943.81;;;15.97;64.75
10978;BME280;5542;48.272;10.794;2022-08-24T01:52:09;95936.91;;;15.96;64.66
10978;BME280;5542;48.272;10.794;2022-08-24T01:54:37;95935.31;;;15.95;64.63
10978;BME280;5542;48.272;10.794;2022-08-24T01:57:05;95929.19;;;15.95;64.90
10978;BME280;5542;48.272;10.794;2022-08-24T01:59:33;95942.72;;;15.93;64.63
10978;BME280;5542;48.272;10.794;2022-08-24T02:02:04;95932.59;;;15.90;64.31
10978;BME280;5542;48.272;10.794;2022-08-24T02:04:32;95929.13;;;15.84;64.48
10978;BME280;5542;48.272;10.794;2022-08-24T02:06:59;95937.34;;;15.83;64.47
10978;BME280;5542;48.272;10.794;2022-08-24T02:09:26;95942.91;;;15.76;64.91
10978;BME280;5542;48.272;10.794;2022-08-24T02:11:53;95939.69;;;15.74;65.12
10978;BME280;5542;48.272;10.794;2022-08-24T02:14:19;95949.22;;;15.75;64.71
10978;BME280;5542;48.272;10.794;2022-08-24T02:16:47;95937.78;;;15.70;65.16
10978;BME280;5542;48.272;10.794;2022-08-24T02:19:14;95941.22;;;15.65;65.45
10978;BME280;5542;48.272;10.794;2022-08-24T02:21:41;95946.19;;;15.61;65.70
10978;BME280;5542;48.272;10.794;2022-08-24T02:24:07;95947.00;;;15.62;65.68
10978;BME280;5542;48.272;10.794;2022-08-24T02:26:35;95939.53;;;15.54;65.78
10978;BME280;5542;48.272;10.794;2022-08-24T02:29:02;95945.31;;;15.51;66.25
10978;BME280;5542;48.272;10.794;2022-08-24T02:31:28;95946.63;;;15.48;66.20
10978;BME280;5542;48.272;10.794;2022-08-24T02:33:56;95944.22;;;15.47;66.47
10978;BME280;5542;48.272;10.794;2022-08-24T02:36:24;95948.97;;;15.45;66.46
10978;BME280;5542;48.272;10.794;2022-08-24T02:38:51;95941.03;;;15.45;66.46
10978;BME280;5542;48.272;10.794;2022-08-24T02:41:17;95941.34;;;15.48;66.26
10978;BME280;5542;48.272;10.794;2022-08-24T02:43:44;95942.59;;;15.41;66.65
10978;BME280;5542;48.272;10.794;2022-08-24T02:46:16;95940.69;;;15.36;66.80
10978;BME280;5542;48.272;10.794;2022-08-24T02:48:43;95938.31;;;15.34;66.76
10978;BME280;5542;48.272;10.794;2022-08-24T02:51:17;95938.53;;;15.33;66.68
10978;BME280;5542;48.272;10.794;2022-08-24T02:53:44;95930.84;;;15.31;66.83
10978;BME280;5542;48.272;10.794;2022-08-24T02:56:10;95932.97;;;15.29;66.38
10978;BME280;5542;48.272;10.794;2022-08-24T02:58:37;95942.69;;;15.24;66.80
10978;BME280;5542;48.272;10.794;2022-08-24T03:01:03;95932.88;;;15.19;66.93
10978;BME280;5542;48.272;10.794;2022-08-24T03:03:30;95939.47;;;15.17;67.10
10978;BME280;5542;48.272;10.794;2022-08-24T03:05:57;95934.66;;;15.14;67.03
10978;BME280;5542;48.272;10.794;2022-08-24T03:08:25;95940.53;;;15.16;66.85
10978;BME280;5542;48.272;10.794;2022-08-24T03:10:51;95942.38;;;15.15;66.69
10978;BME280;5542;48.272;10.794;2022-08-24T03:13:18;95943.19;;;15.16;66.69
10978;BME280;5542;48.272;10.794;2022-08-24T03:15:44;95938.63;;;15.11;66.96
10978;BME280;5542;48.272;10.794;2022-08-24T03:18:11;95938.31;;;15.07;67.24
10978;BME280;5542;48.272;10.794;2022-08-24T03:20:38;95937.53;;;15.07;67.29
10978;BME280;5542;48.272;10.794;2022-08-24T03:23:05;95944.72;;;15.11;66.93
10978;BME280;5542;48.272;10.794;2022-08-24T03:25:32;95943.38;;;15.09;66.64
10978;BME280;5542;48.272;10.794;2022-08-24T03:27:59;95941.47;;;15.04;66.95
10978;BME280;5542;48.272;10.794;2022-08-24T03:30:27;95934.28;;;15.00;67.16
10978;BME280;5542;48.272;10.794;2022-08-24T03:32:53;95939.34;;;15.01;66.82
10978;BME280;5542;48.272;10.794;2022-08-24T03:35:20;95942.00;;;15.01;66.81
10978;BME280;5542;48.272;10.794;2022-08-24T03:37:47;95942.47;;;14.98;66.91
10978;BME280;5542;48.272;10.794;2022-08-24T03:40:14;95938.72;;;14.94;67.14
10978;BME280;5542;48.272;10.794;2022-08-24T03:42:42;95941.84;;;14.86;67.07
10978;BME280;5542;48.272;10.794;2022-08-24T03:45:09;95946.28;;;14.80;67.42
10978;BME280;5542;48.272;10.794;2022-08-24T03:47:36;95938.59;;;14.79;66.90
10978;BME280;5542;48.272;10.794;2022-08-24T03:50:04;95941.22;;;14.79;67.04
10978;BME280;5542;48.272;10.794;2022-08-24T03:52:32;95936.38;;;14.71;67.33
10978;BME280;5542;48.272;10.794;2022-08-24T03:54:59;95943.47;;;14.65;67.74
10978;BME280;5542;48.272;10.794;2022-08-24T03:57:26;95941.06;;;14.64;67.90
10978;BME280;5542;48.272;10.794;2022-08-24T03:59:54;95943.16;;;14.62;68.05
10978;BME280;5542;48.272;10.794;2022-08-24T04:02:20;95952.16;;;14.60;67.86
10978;BME280;5542;48.272;10.794;2022-08-24T04:04:47;95955.38;;;14.63;67.68
10978;BME280;5542;48.272;10.794;2022-08-24T04:07:14;95951.59;;;14.58;67.65
10978;BME280;5542;48.272;10.794;2022-08-24T04:09:40;95947.38;;;14.57;67.97
10978;BME280;5542;48.272;10.794;2022-08-24T04:12:07;95948.97;;;14.58;68.13
10978;BME280;5542;48.272;10.794;2022-08-24T04:14:34;95947.91;;;14.59;68.12
10978;BME280;5542;48.272;10.794;2022-08-24T04:17:02;95948.69;;;14.60;67.80
10978;BME280;5542;48.272;10.794;2022-08-24T04:19:29;95952.16;;;14.60;67.36
10978;BME280;5542;48.272;10.794;2022-08-24T04:21:56;95953.16;;;14.54;67.71
10978;BME280;5542;48.272;10.794;2022-08-24T04:24:23;95950.59;;;14.43;67.64
10978;BME280;5542;48.272;10.794;2022-08-24T04:26:50;95955.81;;;14.38;68.04
10978;BME280;5542;48.272;10.794;2022-08-24T04:29:18;95950.53;;;14.38;68.14
10978;BME280;5542;48.272;10.794;2022-08-24T04:31:45;95958.22;;;14.39;67.70
10978;BME280;5542;48.272;10.794;2022-08-24T04:34:14;95959.50;;;14.37;67.79
10978;BME280;5542;48.272;10.794;2022-08-24T04:36:42;95958.72;;;14.36;67.98
10978;BME280;5542;48.272;10.794;2022-08-24T04:39:09;95960.56;;;14.35;67.87
10978;BME280;5542;48.272;10.794;2022-08-24T04:41:35;95962.97;;;14.37;67.29
10978;BME280;5542;48.272;10.794;2022-08-24T04:44:03;95966.59;;;14.31;67.58
10978;BME280;5542;48.272;10.794;2022-08-24T04:46:29;95966.53;;;14.26;68.04
10978;BME280;5542;48.272;10.794;2022-08-24T04:48:56;95961.72;;;14.23;68.43
10978;BME280;5542;48.272;10.794;2022-08-24T04:51:24;95967.81;;;14.23;68.39
10978;BME280;5542;48.272;10.794;2022-08-24T04:53:51;95974.94;;;14.23;68.43
10978;BME280;5542;48.272;10.794;2022-08-24T04:56:20;95968.59;;;14.24;68.35
10978;BME280;5542;48.272;10.794;2022-08-24T04:58:48;95973.41;;;14.27;68.69
10978;BME280;5542;48.272;10.794;2022-08-24T05:01:16;95978.63;;;14.22;68.50
10978;BME280;5542;48.272;10.794;2022-08-24T05:03:44;95972.56;;;14.21;68.81
10978;BME280;5542;48.272;10.794;2022-08-24T05:06:12;95976.47;;;14.19;68.93
10978;BME280;5542;48.272;10.794;2022-08-24T05:08:41;95980.97;;;14.18;69.32
10978;BME280;5542;48.272;10.794;2022-08-24T05:11:08;95978.31;;;14.18;69.32
10978;BME280;5542;48.272;10.794;2022-08-24T05:13:35;95976.47;;;14.19;69.21
10978;BME280;5542;48.272;10.794;2022-08-24T05:16:05;95977.84;;;14.21;69.48
10978;BME280;5542;48.272;10.794;2022-08-24T05:18:31;95988.16;;;14.23;69.47
10978;BME280;5542;48.272;10.794;2022-08-24T05:20:58;95981.81;;;14.24;69.68
10978;BME280;5542;48.272;10.794;2022-08-24T05:23:25;95981.09;;;14.28;70.01
10978;BME280;5542;48.272;10.794;2022-08-24T05:26:02;95986.69;;;14.32;70.15
10978;BME280;5542;48.272;10.794;2022-08-24T05:28:30;95985.44;;;14.34;70.34
10978;BME280;5542;48.272;10.794;2022-08-24T05:31:05;95986.53;;;14.39;70.57
10978;BME280;5542;48.272;10.794;2022-08-24T05:33:31;95984.97;;;14.43;70.61
10978;BME280;5542;48.272;10.794;2022-08-24T05:35:58;95989.53;;;14.47;70.37
10978;BME280;5542;48.272;10.794;2022-08-24T05:38:25;95989.09;;;14.50;70.18
10978;BME280;5542;48.272;10.794;2022-08-24T05:40:53;95987.81;;;14.53;70.33
10978;BME280;5542;48.272;10.794;2022-08-24T05:43:20;95992.91;;;14.59;70.27
10978;BME280;5542;48.272;10.794;2022-08-24T05:45:46;95994.00;;;14.64;70.35
10978;BME280;5542;48.272;10.794;2022-08-24T05:48:13;95999.91;;;14.71;70.26
10978;BME280;5542;48.272;10.794;2022-08-24T05:50:39;96001.31;;;14.78;70.47
10978;BME280;5542;48.272;10.794;2022-08-24T05:53:06;96010.97;;;14.90;70.21
10978;BME280;5542;48.272;10.794;2022-08-24T05:55:32;96006.00;;;14.93;69.57
10978;BME280;5542;48.272;10.794;2022-08-24T05:58:00;96006.09;;;15.03;69.22
10978;BME280;5542;48.272;10.794;2022-08-24T06:00:27;96010.47;;;15.15;69.00
10978;BME280;5542;48.272;10.794;2022-08-24T06:02:56;96006.56;;;15.22;68.64
10978;BME280;5542;48.272;10.794;2022-08-24T06:05:22;96011.72;;;15.34;68.22
10978;BME280;5542;48.272;10.794;2022-08-24T06:07:49;96012.91;;;15.48;68.22
10978;BME280;5542;48.272;10.794;2022-08-24T06:10:15;96013.09;;;15.69;67.65
10978;BME280;5542;48.272;10.794;2022-08-24T06:12:42;96009.50;;;15.85;68.51
10978;BME280;5542;48.272;10.794;2022-08-24T06:15:11;96005.94;;;16.06;68.20
10978;BME280;5542;48.272;10.794;2022-08-24T06:17:37;96012.69;;;16.24;68.18
10978;BME280;5542;48.272;10.794;2022-08-24T06:20:05;96014.06;;;16.37;66.05
10978;BME280;5542;48.272;10.794;2022-08-24T06:22:32;96008.91;;;16.62;66.97
10978;BME280;5542;48.272;10.794;2022-08-24T06:24:59;96010.31;;;16.80;65.59
10978;BME280;5542;48.272;10.794;2022-08-24T06:27:43;96007.25;;;17.19;64.67
10978;BME280;5542;48.272;10.794;2022-08-24T06:30:12;96008.06;;;17.50;62.76
10978;BME280;5542;48.272;10.794;2022-08-24T06:32:38;96019.78;;;17.70;62.59
10978;BME280;5542;48.272;10.794;2022-08-24T06:35:08;96013.69;;;18.05;62.01
10978;BME280;5542;48.272;10.794;2022-08-24T06:37:35;96014.97;;;18.33;60.24
10978;BME280;5542;48.272;10.794;2022-08-24T06:40:02;96013.03;;;18.54;58.74
10978;BME280;5542;48.272;10.794;2022-08-24T06:42:29;96013.31;;;18.57;59.24
10978;BME280;5542;48.272;10.794;2022-08-24T06:44:56;96012.28;;;18.48;63.62
10978;BME280;5542;48.272;10.794;2022-08-24T06:47:25;96010.81;;;18.91;64.00
10978;BME280;5542;48.272;10.794;2022-08-24T06:49:51;96019.50;;;19.07;59.87
10978;BME280;5542;48.272;10.794;2022-08-24T06:52:18;96021.78;;;19.29;61.90
10978;BME280;5542;48.272;10.794;2022-08-24T06:54:45;96021.13;;;19.87;56.71
10978;BME280;5542;48.272;10.794;2022-08-24T06:57:11;96025.88;;;19.95;57.01
10978;BME280;5542;48.272;10.794;2022-08-24T06:59:38;96026.91;;;20.28;54.75
10978;BME280;5542;48.272;10.794;2022-08-24T07:02:07;96028.16;;;20.65;55.44
10978;BME280;5542;48.272;10.794;2022-08-24T07:04:35;96016.50;;;21.22;53.97
10978;BME280;5542;48.272;10.794;2022-08-24T07:07:02;96021.34;;;21.58;52.20
10978;BME280;5542;48.272;10.794;2022-08-24T07:09:30;96015.75;;;22.06;50.22
10978;BME280;5542;48.272;10.794;2022-08-24T07:11:56;96013.47;;;21.99;47.66
10978;BME280;5542;48.272;10.794;2022-08-24T07:14:23;96017.81;;;22.28;49.38
10978;BME280;5542;48.272;10.794;2022-08-24T07:16:50;96016.25;;;22.68;50.14
10978;BME280;5542;48.272;10.794;2022-08-24T07:19:16;96026.06;;;23.28;48.67
10978;BME280;5542;48.272;10.794;2022-08-24T07:21:44;96019.00;;;23.68;45.46
10978;BME280;5542;48.272;10.794;2022-08-24T07:24:11;96026.84;;;23.79;46.23
10978;BME280;5542;48.272;10.794;2022-08-24T07:26:38;96029.22;;;24.11;47.07
10978;BME280;5542;48.272;10.794;2022-08-24T07:29:08;96032.78;;;24.20;46.15
10978;BME280;5542;48.272;10.794;2022-08-24T07:31:37;96026.56;;;23.66;43.78
10978;BME280;5542;48.272;10.794;2022-08-24T07:34:06;96041.38;;;23.14;49.74
10978;BME280;5542;48.272;10.794;2022-08-24T07:36:33;96032.44;;;23.55;49.75
10978;BME280;5542;48.272;10.794;2022-08-24T07:39:02;96028.44;;;24.11;44.32
10978;BME280;5542;48.272;10.794;2022-08-24T07:41:29;96026.72;;;24.15;46.41
10978;BME280;5542;48.272;10.794;2022-08-24T07:43:55;96027.38;;;24.43;45.14
10978;BME280;5542;48.272;10.794;2022-08-24T07:46:23;96018.66;;;24.37;43.48
10978;BME280;5542;48.272;10.794;2022-08-24T07:48:49;96021.16;;;24.02;45.14
10978;BME280;5542;48.272;10.794;2022-08-24T07:51:17;96026.47;;;24.25;45.71
10978;BME280;5542;48.272;10.794;2022-08-24T07:53:44;96013.03;;;24.25;46.05
10978;BME280;5542;48.272;10.794;2022-08-24T07:56:13;96011.25;;;24.43;42.52
10978;BME280;5542;48.272;10.794;2022-08-24T07:58:40;96018.78;;;24.63;46.37
10978;BME280;5542;48.272;10.794;2022-08-24T08:01:06;96015.13;;;24.59;44.80
10978;BME280;5542;48.272;10.794;2022-08-24T08:03:34;96016.06;;;24.55;43.64
10978;BME280;5542;48.272;10.794;2022-08-24T08:06:04;96017.59;;;24.87;47.46
10978;BME280;5542;48.272;10.794;2022-08-24T08:08:34;96011.69;;;25.33;43.46
10978;BME280;5542;48.272;10.794;2022-08-24T08:11:01;96005.69;;;25.62;40.82
10978;BME280;5542;48.272;10.794;2022-08-24T08:13:29;96014.13;;;24.95;40.71
10978;BME280;5542;48.272;10.794;2022-08-24T08:15:57;96011.25;;;24.43;42.68
10978;BME280;5542;48.272;10.794;2022-08-24T08:18:24;96016.06;;;24.01;45.88
10978;BME280;5542;48.272;10.794;2022-08-24T08:20:51;96011.44;;;23.93;43.70
10978;BME280;5542;48.272;10.794;2022-08-24T08:23:18;96014.91;;;23.71;44.82
10978;BME280;5542;48.272;10.794;2022-08-24T08:26:05;96030.03;;;23.67;47.43
10978;BME280;5542;48.272;10.794;2022-08-24T08:28:34;96017.03;;;24.05;45.36
10978;BME280;5542;48.272;10.794;2022-08-24T08:31:01;96025.50;;;24.83;45.76
10978;BME280;5542;48.272;10.794;2022-08-24T08:33:29;96013.72;;;25.19;44.41
10978;BME280;5542;48.272;10.794;2022-08-24T08:36:05;96017.59;;;24.87;42.23
10978;BME280;5542;48.272;10.794;2022-08-24T08:38:33;96027.56;;;24.86;46.08
10978;BME280;5542;48.272;10.794;2022-08-24T08:41:12;96008.22;;;25.33;40.37
10978;BME280;5542;48.272;10.794;2022-08-24T08:43:47;96012.47;;;25.34;41.61
10978;BME280;5542;48.272;10.794;2022-08-24T08:46:24;96004.91;;;25.79;39.53
10978;BME280;5542;48.272;10.794;2022-08-24T08:49:09;96014.88;;;25.52;40.21
10978;BME280;5542;48.272;10.794;2022-08-24T08:54:59;96017.84;;;25.25;42.02
10978;BME280;5542;48.272;10.794;2022-08-24T08:57:38;96014.22;;;25.12;41.82
10978;BME280;5542;48.272;10.794;2022-08-24T09:00:15;96017.88;;;25.42;42.18
10978;BME280;5542;48.272;10.794;2022-08-24T09:03:00;96012.63;;;25.28;42.71
10978;BME280;5542;48.272;10.794;2022-08-24T09:05:43;96021.31;;;25.08;43.32
10978;BME280;5542;48.272;10.794;2022-08-24T09:08:23;96017.81;;;24.59;43.97
10978;BME280;5542;48.272;10.794;2022-08-24T09:11:00;96031.47;;;24.71;48.36
10978;BME280;5542;48.272;10.794;2022-08-24T09:13:41;96019.88;;;25.02;44.55
10978;BME280;5542;48.272;10.794;2022-08-24T09:16:20;96016.13;;;25.38;43.22
10978;BME280;5542;48.272;10.794;2022-08-24T09:19:08;96020.56;;;25.16;42.69
10978;BME280;5542;48.272;10.794;2022-08-24T09:21:49;96022.44;;;25.16;42.77
10978;BME280;5542;48.272;10.794;2022-08-24T09:24:35;96029.63;;;24.89;45.14
10978;BME280;5542;48.272;10.794;2022-08-24T09:27:14;96029.34;;;24.99;43.84
10978;BME280;5542;48.272;10.794;2022-08-24T09:29:58;96027.97;;;25.11;45.18
10978;BME280;5542;48.272;10.794;2022-08-24T09:32:36;96016.50;;;24.96;43.52
10978;BME280;5542;48.272;10.794;2022-08-24T09:35:05;96011.38;;;25.17;43.85
10978;BME280;5542;48.272;10.794;2022-08-24T09:37:46;96015.16;;;25.34;43.63
10978;BME280;5542;48.272;10.794;2022-08-24T09:40:33;96024.53;;;25.27;43.22
10978;BME280;5542;48.272;10.794;2022-08-24T09:43:22;96013.03;;;25.04;43.29
10978;BME280;5542;48.272;10.794;2022-08-24T09:46:08;96012.47;;;25.16;45.95
10978;BME280;5542;48.272;10.794;2022-08-24T09:49:01;96007.56;;;25.53;44.09
10978;BME280;5542;48.272;10.794;2022-08-24T09:51:48;96004.25;;;25.47;43.96
10978;BME280;5542;48.272;10.794;2022-08-24T09:54:37;96007.13;;;25.51;42.47
10978;BME280;5542;48.272;10.794;2022-08-24T09:57:21;95997.75;;;25.66;42.46
10978;BME280;5542;48.272;10.794;2022-08-24T10:00:08;96000.63;;;25.69;42.61
10978;BME280;5542;48.272;10.794;2022-08-24T10:03:00;96003.78;;;25.89;42.78
10978;BME280;5542;48.272;10.794;2022-08-24T10:05:46;95986.69;;;25.85;40.97
10978;BME280;5542;48.272;10.794;2022-08-24T10:08:23;95988.53;;;26.10;39.67
10978;BME280;5542;48.272;10.794;2022-08-24T10:11:01;95996.16;;;26.08;42.12
10978;BME280;5542;48.272;10.794;2022-08-24T10:13:38;95990.72;;;26.25;39.97
10978;BME280;5542;48.272;10.794;2022-08-24T10:16:18;95991.59;;;25.83;41.59
10978;BME280;5542;48.272;10.794;2022-08-24T10:18:55;95989.34;;;26.02;41.35
10978;BME280;5542;48.272;10.794;2022-08-24T10:21:37;95992.25;;;25.79;43.00
10978;BME280;5542;48.272;10.794;2022-08-24T10:24:30;95993.00;;;25.97;41.02
10978;BME280;5542;48.272;10.794;2022-08-24T10:27:15;95991.28;;;25.84;41.12
10978;BME280;5542;48.272;10.794;2022-08-24T10:30:03;95988.59;;;25.41;42.50
10978;BME280;5542;48.272;10.794;2022-08-24T10:32:58;95986.66;;;25.59;41.46
10978;BME280;5542;48.272;10.794;2022-08-24T10:35:34;95983.03;;;25.98;41.07
10978;BME280;5542;48.272;10.794;2022-08-24T10:41:42;95987.63;;;25.71;40.49
10978;BME280;5542;48.272;10.794;2022-08-24T10:44:36;95988.91;;;25.65;41.48
10978;BME280;5542;48.272;10.794;2022-08-24T10:47:11;95981.28;;;25.67;41.93
10978;BME280;5542;48.272;10.794;2022-08-24T10:50:19;95974.97;;;25.81;41.27
10978;BME280;5542;48.272;10.794;2022-08-24T10:53:07;95972.72;;;25.39;42.99
10978;BME280;5542;48.272;10.794;2022-08-24T10:55:40;95975.91;;;25.41;42.94
10978;BME280;5542;48.272;10.794;2022-08-24T10:58:37;95975.72;;;25.72;43.51
10978;BME280;5542;48.272;10.794;2022-08-24T11:01:19;95978.59;;;25.59;41.95
10978;BME280;5542;48.272;10.794;2022-08-24T11:03:49;95981.75;;;25.52;42.62
10978;BME280;5542;48.272;10.794;2022-08-24T11:06:17;95982.88;;;25.42;43.54
10978;BME280;5542;48.272;10.794;2022-08-24T11:08:51;95985.88;;;25.58;43.95
10978;BME280;5542;48.272;10.794;2022-08-24T11:11:26;95985.91;;;25.75;43.41
10978;BME280;5542;48.272;10.794;2022-08-24T11:13:54;95988.06;;;25.99;43.43
10978;BME280;5542;48.272;10.794;2022-08-24T11:16:31;95975.72;;;26.07;41.96
10978;BME280;5542;48.272;10.794;2022-08-24T11:18:59;95988.22;;;26.12;43.52
10978;BME280;5542;48.272;10.794;2022-08-24T11:21:39;95973.41;;;26.35;41.62
10978;BME280;5542;48.272;10.794;2022-08-24T11:24:09;95979.53;;;25.97;42.66
10978;BME280;5542;48.272;10.794;2022-08-24T11:26:49;95974.47;;;25.87;41.58
10978;BME280;5542;48.272;10.794;2022-08-24T11:29:17;95976.53;;;25.56;42.60
10978;BME280;5542;48.272;10.794;2022-08-24T11:31:47;95971.00;;;25.52;43.75
10978;BME280;5542;48.272;10.794;2022-08-24T11:34:18;95972.28;;;25.37;44.74
10978;BME280;5542;48.272;10.794;2022-08-24T11:36:46;95975.28;;;25.27;44.91
10978;BME280;5542;48.272;10.794;2022-08-24T11:39:20;95963.56;;;25.23;43.94
10978;BME280;5542;48.272;10.794;2022-08-24T11:41:54;95970.53;;;25.50;43.53
10978;BME280;5542;48.272;10.794;2022-08-24T11:44:36;95973.22;;;25.24;43.61
10978;BME280;5542;48.272;10.794;2022-08-24T11:47:12;95967.19;;;25.10;44.55
10978;BME280;5542;48.272;10.794;2022-08-24T11:49:48;95963.41;;;25.45;43.89
10978;BME280;5542;48.272;10.794;2022-08-24T11:52:24;95955.16;;;25.76;43.68
10978;BME280;5542;48.272;10.794;2022-08-24T11:55:00;95965.75;;;25.90;43.65
10978;BME280;5542;48.272;10.794;2022-08-24T11:57:34;95964.28;;;26.01;43.97
10978;BME280;5542;48.272;10.794;2022-08-24T12:00:06;95960.31;;;26.16;43.43
10978;BME280;5542;48.272;10.794;2022-08-24T12:02:38;95957.88;;;26.23;43.39
10978;BME280;5542;48.272;10.794;2022-08-24T12:05:17;95958.13;;;26.48;43.18
10978;BME280;5542;48.272;10.794;2022-08-24T12:07:54;95966.56;;;26.76;42.25
10978;BME280;5542;48.272;10.794;2022-08-24T12:10:31;95952.28;;;26.46;41.42
10978;BME280;5542;48.272;10.794;2022-08-24T12:13:09;95957.00;;;26.02;42.33
10978;BME280;5542;48.272;10.794;2022-08-24T12:15:47;95959.22;;;26.09;43.14
10978;BME280;5542;48.272;10.794;2022-08-24T12:18:23;95952.03;;;26.21;42.70
10978;BME280;5542;48.272;10.794;2022-08-24T12:20:53;95953.63;;;26.22;42.46
10978;BME280;5542;48.272;10.794;2022-08-24T12:23:26;95953.25;;;26.33;44.16
10978;BME280;5542;48.272;10.794;2022-08-24T12:25:59;95955.13;;;26.41;41.56
10978;BME280;5542;48.272;10.794;2022-08-24T12:28:33;95952.94;;;26.34;40.75
10978;BME280;5542;48.272;10.794;2022-08-24T12:31:06;95949.53;;;26.16;42.45
10978;BME280;5542;48.272;10.794;2022-08-24T12:33:35;95948.84;;;26.28;41.82
10978;BME280;5542;48.272;10.794;2022-08-24T12:36:09;95944.00;;;26.42;41.89
10978;BME280;5542;48.272;10.794;2022-08-24T12:38:42;95942.84;;;26.22;42.90
10978;BME280;5542;48.272;10.794;2022-08-24T12:41:14;95944.59;;;26.10;43.00
10978;BME280;5542;48.272;10.794;2022-08-24T12:43:46;95938.91;;;26.11;42.50
10978;BME280;5542;48.272;10.794;2022-08-24T12:46:19;95930.13;;;26.32;42.64
10978;BME280;5542;48.272;10.794;2022-08-24T12:48:50;95928.53;;;26.30;42.37
10978;BME280;5542;48.272;10.794;2022-08-24T12:51:21;95934.72;;;26.31;42.79
10978;BME280;5542;48.272;10.794;2022-08-24T12:54:11;95939.06;;;26.53;43.01
10978;BME280;5542;48.272;10.794;2022-08-24T12:56:54;95937.69;;;26.47;42.97
10978;BME280;5542;48.272;10.794;2022-08-24T12:59:28;95938.81;;;26.37;43.32
10978;BME280;5542;48.272;10.794;2022-08-24T13:01:59;95938.91;;;26.11;43.04
10978;BME280;5542;48.272;10.794;2022-08-24T13:04:34;95943.28;;;26.24;43.88
10978;BME280;5542;48.272;10.794;2022-08-24T13:07:06;95937.91;;;26.16;42.83
10978;BME280;5542;48.272;10.794;2022-08-24T13:09:35;95944.25;;;26.20;44.06
10978;BME280;5542;48.272;10.794;2022-08-24T13:15:25;95933.97;;;26.22;43.79
10978;BME280;5542;48.272;10.794;2022-08-24T13:17:54;95940.22;;;26.35;44.07
10978;BME280;5542;48.272;10.794;2022-08-24T13:20:23;95934.84;;;26.35;43.18
10978;BME280;5542;48.272;10.794;2022-08-24T13:23:07;95932.59;;;25.98;44.13
10978;BME280;5542;48.272;10.794;2022-08-24T13:25:56;95930.28;;;25.62;44.20
10978;BME280;5542;48.272;10.794;2022-08-24T13:28:35;95934.69;;;25.67;45.19
10978;BME280;5542;48.272;10.794;2022-08-24T13:31:18;95937.22;;;25.89;44.84